Terminal Aerodrome Forecast
Issued by NWS Green Bay, WI

Home | Current Version | Previous Version | Graphics & Text | Print | Product List | Glossary On
Versions: 1 2 3 4 5 6 7 8 9 10 11 12 13 14 15 16 17 18 19 20 21 22 23 24 25 26 27 28
765
FTUS43 KGRB 311910 AAA
TAFGRB
TAF AMD
KGRB 311910Z 3119/0118 05010G16KT P6SM SCT090
     FM312100 10006KT P6SM VCSH SCT040 OVC080
      TEMPO 3121/0101 4SM -SHRA BKN040
     FM010400 14007KT 6SM -SHRA BKN035 OVC070 WS009/16035KT
      TEMPO 0107/0111 3SM -TSRA BR BKN025CB
     FM011100 16007KT 4SM -SHRA BR BKN015
     FM011500 18009G14KT 5SM HZ BKN035=

USA.gov is the U.S. government's official web portal to all federal, state and local government web resources and services.